createdAt,value
2018-09-14T00:00:34.221Z,6.03
2018-09-14T00:03:02.766Z,5.37
2018-09-14T00:05:31.405Z,6.60
2018-09-14T00:08:00.985Z,7.60
2018-09-14T00:10:29.604Z,6.40
2018-09-14T00:12:58.141Z,6.97
2018-09-14T00:15:26.771Z,7.20
2018-09-14T00:17:55.309Z,6.43
2018-09-14T00:20:23.881Z,6.20
2018-09-14T00:22:52.507Z,6.73
2018-09-14T00:25:21.040Z,7.87
2018-09-14T00:27:49.630Z,7.10
2018-09-14T00:30:18.258Z,7.40
2018-09-14T00:32:46.824Z,7.40
2018-09-14T00:35:15.362Z,7.77
2018-09-14T00:37:43.965Z,7.77
2018-09-14T00:40:12.481Z,7.57
2018-09-14T00:42:41.003Z,6.80
2018-09-14T00:45:09.653Z,6.87
2018-09-14T00:47:38.228Z,6.80
2018-09-14T00:50:06.986Z,7.40
2018-09-14T00:52:35.520Z,6.43
2018-09-14T00:55:04.122Z,8.20
2018-09-14T00:57:32.665Z,7.50
2018-09-14T01:00:01.269Z,6.80
2018-09-14T01:02:29.822Z,6.60
2018-09-14T01:04:58.408Z,7.63
2018-09-14T01:07:26.999Z,7.50
2018-09-14T01:09:55.606Z,8.97
2018-09-14T01:12:24.196Z,8.33
2018-09-14T01:14:52.756Z,8.40
2018-09-14T01:17:22.412Z,8.20
2018-09-14T01:19:50.973Z,8.77
2018-09-14T01:22:19.575Z,8.50
2018-09-14T01:24:48.172Z,8.90
2018-09-14T01:27:16.816Z,9.30
2018-09-14T01:29:45.432Z,8.93
2018-09-14T01:32:14.033Z,7.70
2018-09-14T01:34:42.594Z,8.97
2018-09-14T01:37:11.230Z,9.70
2018-09-14T01:39:39.763Z,9.07
2018-09-14T01:42:08.368Z,9.00
2018-09-14T01:44:37.010Z,9.83
2018-09-14T01:47:05.649Z,11.30
2018-09-14T01:49:34.215Z,10.80
2018-09-14T01:52:02.789Z,11.57
2018-09-14T01:54:31.386Z,11.23
2018-09-14T01:57:00.009Z,12.83
2018-09-14T01:59:28.539Z,11.40
2018-09-14T02:01:57.085Z,12.10
2018-09-14T02:04:25.680Z,11.83
2018-09-14T02:06:54.361Z,11.87
2018-09-14T02:09:22.988Z,12.90
2018-09-14T02:11:53.654Z,13.83
2018-09-14T02:14:22.226Z,13.23
2018-09-14T02:16:50.782Z,14.30
2018-09-14T02:19:19.283Z,14.80
2018-09-14T02:21:47.837Z,15.43
2018-09-14T02:24:16.365Z,15.80
2018-09-14T02:26:45.016Z,15.30
2018-09-14T02:29:13.642Z,17.80
2018-09-14T02:31:43.307Z,15.20
2018-09-14T02:34:11.828Z,13.03
2018-09-14T02:36:40.458Z,12.00
2018-09-14T02:39:09.216Z,10.53
2018-09-14T02:41:37.769Z,9.30
2018-09-14T02:44:07.306Z,9.53
2018-09-14T02:46:35.920Z,10.30
2018-09-14T02:49:04.476Z,10.37
2018-09-14T02:51:33.056Z,9.70
2018-09-14T02:54:01.711Z,8.93
2018-09-14T02:56:30.253Z,9.53
2018-09-14T02:58:58.765Z,10.00
2018-09-14T03:01:27.364Z,8.87
2018-09-14T03:03:55.930Z,9.27
2018-09-14T03:06:24.463Z,8.30
2018-09-14T03:08:53.092Z,8.57
2018-09-14T03:11:21.641Z,9.37
2018-09-14T03:13:50.212Z,9.10
2018-09-14T03:16:18.797Z,9.17
2018-09-14T03:18:52.690Z,8.83
2018-09-14T03:21:21.232Z,9.73
2018-09-14T03:23:49.792Z,9.63
2018-09-14T03:26:18.379Z,7.67
2018-09-14T03:28:46.974Z,8.43
2018-09-14T03:31:15.601Z,9.23
2018-09-14T03:33:44.213Z,9.60
2018-09-14T03:36:12.773Z,9.57
2018-09-14T03:38:41.477Z,9.50
2018-09-14T03:41:10.149Z,10.20
2018-09-14T03:43:38.781Z,10.97
2018-09-14T03:46:07.428Z,10.67
2018-09-14T03:48:36.069Z,10.40
2018-09-14T03:51:04.568Z,10.10
2018-09-14T03:53:33.171Z,10.60
2018-09-14T03:56:01.802Z,11.67
2018-09-14T03:58:30.424Z,10.30
2018-09-14T04:00:59.007Z,10.97
2018-09-14T04:03:27.626Z,11.17
2018-09-14T04:05:56.277Z,10.97
2018-09-14T04:08:24.849Z,11.90
2018-09-14T04:10:59.199Z,10.40
2018-09-14T04:13:27.760Z,12.40
2018-09-14T04:15:56.457Z,11.77
2018-09-14T04:18:25.038Z,12.50
2018-09-14T04:20:53.630Z,12.37
2018-09-14T04:23:22.241Z,12.70
2018-09-14T04:25:51.883Z,12.60
2018-09-14T04:28:20.551Z,12.27
2018-09-14T04:30:53.831Z,12.33
2018-09-14T04:33:22.418Z,12.80
2018-09-14T04:35:52.036Z,11.13
2018-09-14T04:38:20.717Z,12.40
2018-09-14T04:40:49.232Z,13.80
2018-09-14T04:43:17.806Z,13.63
2018-09-14T04:45:46.431Z,13.90
2018-09-14T04:48:15.998Z,12.80
2018-09-14T04:50:44.612Z,12.77
2018-09-14T04:53:13.228Z,12.90
2018-09-14T04:55:41.869Z,12.00
2018-09-14T04:58:10.394Z,16.47
2018-09-14T05:00:39.073Z,15.03
2018-09-14T05:03:07.702Z,15.53
2018-09-14T05:05:36.325Z,19.77
2018-09-14T05:08:04.897Z,28.40
2018-09-14T05:10:33.487Z,28.20
2018-09-14T05:13:01.998Z,23.03
2018-09-14T05:15:30.628Z,22.20
2018-09-14T05:18:00.710Z,30.97
2018-09-14T05:20:29.422Z,34.07
2018-09-14T05:23:00.516Z,35.50
2018-09-14T05:25:29.097Z,34.90
2018-09-14T05:27:57.646Z,34.77
2018-09-14T05:30:26.231Z,33.97
2018-09-14T05:32:55.266Z,38.10
2018-09-14T05:35:23.924Z,36.70
2018-09-14T05:37:52.538Z,39.57
2018-09-14T05:40:21.193Z,37.23
2018-09-14T05:42:49.810Z,38.73
2018-09-14T05:45:18.446Z,39.47
2018-09-14T05:47:47.325Z,39.10
2018-09-14T05:50:16.237Z,39.43
2018-09-14T05:52:45.246Z,40.53
2018-09-14T05:55:14.048Z,40.60
2018-09-14T05:57:42.720Z,40.63
2018-09-14T06:00:11.335Z,38.23
2018-09-14T06:02:39.953Z,41.03
2018-09-14T06:05:08.639Z,42.80
2018-09-14T06:07:37.325Z,40.77
2018-09-14T06:10:07.033Z,43.80
2018-09-14T06:12:35.640Z,44.40
2018-09-14T06:15:04.248Z,40.23
2018-09-14T06:17:32.940Z,42.60
2018-09-14T06:20:01.560Z,41.90
2018-09-14T06:22:30.162Z,40.70
2018-09-14T06:24:58.806Z,41.40
2018-09-14T06:27:27.407Z,41.77
2018-09-14T06:29:55.977Z,41.90
2018-09-14T06:32:24.635Z,40.33
2018-09-14T06:34:53.135Z,40.10
2018-09-14T06:37:21.720Z,39.60
2018-09-14T06:39:50.320Z,43.37
2018-09-14T06:42:18.868Z,40.43
2018-09-14T06:44:47.497Z,42.03
2018-09-14T06:47:16.204Z,39.30
2018-09-14T06:49:44.831Z,41.33
2018-09-14T06:52:13.455Z,41.23
2018-09-14T06:54:42.028Z,42.40
2018-09-14T06:57:10.624Z,39.30
2018-09-14T06:59:39.278Z,36.67
2018-09-14T07:02:13.615Z,38.70
2018-09-14T07:04:42.192Z,38.20
2018-09-14T07:07:10.832Z,38.93
2018-09-14T07:09:39.494Z,39.37
2018-09-14T07:12:08.043Z,41.17
2018-09-14T07:14:36.580Z,39.90
2018-09-14T07:17:05.243Z,36.50
2018-09-14T07:19:33.798Z,36.10
2018-09-14T07:22:02.438Z,39.30
2018-09-14T07:24:31.066Z,38.97
2018-09-14T07:26:59.546Z,38.10
2018-09-14T07:29:28.190Z,34.73
2018-09-14T07:31:56.858Z,35.53
2018-09-14T07:34:25.397Z,52.57
2018-09-14T07:36:54.084Z,42.30
2018-09-14T07:39:22.698Z,37.50
2018-09-14T07:41:51.555Z,35.93
2018-09-14T07:44:20.093Z,36.53
2018-09-14T07:46:48.671Z,35.30
2018-09-14T07:49:17.215Z,36.20
2018-09-14T07:51:45.818Z,32.47
2018-09-14T07:54:14.372Z,31.20
2018-09-14T07:56:43.219Z,31.57
2018-09-14T07:59:12.092Z,30.27
2018-09-14T08:01:41.094Z,30.67
2018-09-14T08:04:09.972Z,32.90
2018-09-14T08:06:38.637Z,31.10
2018-09-14T08:09:10.686Z,32.53
2018-09-14T08:11:45.757Z,34.47
2018-09-14T08:14:14.310Z,29.93
2018-09-14T08:16:42.880Z,32.10
2018-09-14T08:19:11.540Z,31.03
2018-09-14T08:21:40.330Z,27.67
2018-09-14T08:24:08.829Z,26.40
2018-09-14T08:26:37.434Z,24.90
2018-09-14T08:29:06.100Z,26.50
2018-09-14T08:31:34.717Z,26.43
2018-09-14T08:34:03.321Z,29.17
2018-09-14T08:36:31.982Z,26.77
2018-09-14T08:39:00.556Z,29.97
2018-09-14T08:41:29.161Z,29.60
2018-09-14T08:43:57.845Z,32.30
2018-09-14T08:46:26.476Z,27.70
2018-09-14T08:48:55.054Z,27.93
2018-09-14T08:51:23.685Z,28.20
2018-09-14T08:53:52.281Z,28.57
2018-09-14T08:56:20.890Z,25.77
2018-09-14T08:58:49.854Z,25.40
2018-09-14T09:01:18.433Z,23.80
2018-09-14T09:03:47.081Z,23.00
2018-09-14T09:06:15.671Z,26.00
2018-09-14T09:08:44.241Z,26.90
2018-09-14T09:11:12.853Z,26.90
2018-09-14T09:13:41.428Z,26.20
2018-09-14T09:16:10.051Z,26.00
2018-09-14T09:18:38.705Z,26.83
2018-09-14T09:21:07.424Z,27.00
2018-09-14T09:23:36.061Z,26.07
2018-09-14T09:26:04.991Z,26.43
2018-09-14T09:28:33.588Z,26.23
2018-09-14T09:31:02.467Z,24.97
2018-09-14T09:33:31.045Z,25.10
2018-09-14T09:35:59.665Z,24.80
2018-09-14T09:38:30.286Z,26.40
2018-09-14T09:40:58.920Z,25.20
2018-09-14T09:43:27.609Z,23.83
2018-09-14T09:45:56.140Z,24.87
2018-09-14T09:48:24.729Z,23.60
2018-09-14T09:50:53.405Z,25.47
2018-09-14T09:53:22.012Z,22.80
2018-09-14T09:55:50.636Z,24.70
2018-09-14T09:58:19.260Z,25.03
2018-09-14T10:00:53.090Z,23.53
2018-09-14T10:03:27.058Z,25.27
2018-09-14T10:05:56.614Z,25.17
2018-09-14T10:08:25.194Z,25.03
2018-09-14T10:10:53.799Z,24.97
2018-09-14T10:13:22.391Z,24.40
2018-09-14T10:15:51.236Z,26.10
2018-09-14T10:18:19.887Z,25.30
2018-09-14T10:20:48.545Z,25.30
2018-09-14T10:23:17.140Z,24.70
2018-09-14T10:25:45.748Z,22.70
2018-09-14T10:28:14.316Z,25.90
2018-09-14T10:30:43.083Z,25.03
2018-09-14T10:33:11.658Z,25.70
2018-09-14T10:35:40.198Z,24.33
2018-09-14T10:38:08.837Z,23.83
2018-09-14T10:40:37.505Z,22.80
2018-09-14T10:43:06.127Z,19.83
2018-09-14T10:45:34.742Z,20.33
2018-09-14T10:48:05.567Z,21.27
2018-09-14T10:50:34.304Z,22.47
2018-09-14T10:53:03.264Z,20.03
2018-09-14T10:55:31.913Z,18.90
2018-09-14T10:58:00.577Z,19.30
2018-09-14T11:00:29.135Z,17.87
2018-09-14T11:02:57.757Z,18.20
2018-09-14T11:05:26.322Z,20.43
2018-09-14T11:07:54.918Z,18.10
2018-09-14T11:10:23.505Z,16.97
2018-09-14T11:12:52.099Z,18.40
2018-09-14T11:15:20.886Z,17.70
2018-09-14T11:17:49.452Z,16.40
2018-09-14T11:20:18.043Z,16.83
2018-09-14T11:22:46.684Z,15.10
2018-09-14T11:25:15.336Z,13.50
2018-09-14T11:27:43.996Z,15.67
2018-09-14T11:30:12.661Z,15.00
2018-09-14T11:32:41.227Z,14.30
2018-09-14T11:35:09.764Z,12.50
2018-09-14T11:37:38.408Z,12.70
2018-09-14T11:40:07.032Z,13.87
2018-09-14T11:42:35.632Z,15.40
2018-09-14T11:45:04.364Z,13.13
2018-09-14T11:47:32.969Z,14.10
2018-09-14T11:50:01.549Z,12.23
2018-09-14T11:52:33.537Z,12.87
2018-09-14T11:55:02.105Z,12.00
2018-09-14T11:57:30.691Z,12.53
2018-09-14T11:59:59.240Z,11.73
2018-09-14T12:02:27.800Z,11.87
2018-09-14T12:04:56.759Z,7.43
2018-09-14T12:07:25.441Z,10.10
2018-09-14T12:09:55.192Z,5.77
2018-09-14T12:12:23.772Z,6.30
2018-09-14T12:14:52.375Z,5.70
2018-09-14T12:17:20.924Z,5.40
2018-09-14T12:19:49.511Z,6.10
2018-09-14T12:22:18.116Z,5.53
2018-09-14T12:24:46.779Z,4.53
2018-09-14T12:27:15.489Z,5.70
2018-09-14T12:29:44.228Z,6.67
2018-09-14T12:32:12.862Z,6.80
2018-09-14T12:34:41.500Z,6.00
2018-09-14T12:37:10.106Z,6.80
2018-09-14T12:39:39.786Z,6.20
2018-09-14T12:42:08.376Z,7.00
2018-09-14T12:44:37.133Z,7.77
2018-09-14T12:47:05.703Z,7.40
2018-09-14T12:49:34.283Z,7.60
2018-09-14T12:52:02.868Z,6.87
2018-09-14T12:54:31.629Z,7.30
2018-09-14T12:57:00.266Z,9.23
2018-09-14T12:59:28.899Z,9.70
2018-09-14T13:01:57.479Z,9.07
2018-09-14T13:04:26.189Z,9.77
2018-09-14T13:06:54.957Z,10.23
2018-09-14T13:09:23.551Z,8.50
2018-09-14T13:11:52.118Z,8.97
2018-09-14T13:14:25.232Z,9.00
2018-09-14T13:16:53.837Z,8.63
2018-09-14T13:19:22.449Z,7.53
2018-09-14T13:21:50.992Z,9.87
2018-09-14T13:24:19.672Z,9.90
2018-09-14T13:26:48.231Z,8.50
2018-09-14T13:29:16.882Z,9.93
2018-09-14T13:31:47.571Z,7.73
2018-09-14T13:34:16.102Z,8.63
2018-09-14T13:36:44.677Z,8.80
2018-09-14T13:39:13.348Z,7.80
2018-09-14T13:41:42.006Z,8.37
2018-09-14T13:44:10.548Z,6.40
2018-09-14T13:46:39.198Z,6.77
2018-09-14T13:49:07.879Z,6.20
2018-09-14T13:51:36.547Z,5.50
2018-09-14T13:54:06.129Z,6.43
2018-09-14T13:56:34.760Z,6.90
2018-09-14T13:59:03.450Z,7.30
2018-09-14T14:01:32.163Z,7.47
2018-09-14T14:04:01.720Z,7.63
2018-09-14T14:06:30.297Z,5.90
2018-09-14T14:09:02.369Z,6.20
2018-09-14T14:11:30.893Z,6.70
2018-09-14T14:13:59.449Z,6.50
2018-09-14T14:16:30.157Z,6.57
2018-09-14T14:19:00.869Z,5.37
2018-09-14T14:21:29.588Z,5.70
2018-09-14T14:23:58.170Z,6.20
2018-09-14T14:26:26.843Z,6.60
2018-09-14T14:28:55.447Z,6.20
2018-09-14T14:31:24.025Z,6.27
2018-09-14T14:33:52.662Z,4.93
2018-09-14T14:36:21.268Z,4.93
2018-09-14T14:38:49.900Z,4.27
2018-09-14T14:41:18.663Z,4.27
2018-09-14T14:43:47.233Z,5.10
2018-09-14T14:46:15.816Z,5.60
2018-09-14T14:48:44.417Z,5.60
2018-09-14T14:51:13.057Z,5.30
2018-09-14T14:53:41.680Z,5.47
2018-09-14T14:56:10.281Z,5.70
2018-09-14T14:58:38.864Z,6.53
2018-09-14T15:01:07.476Z,6.60
2018-09-14T15:03:36.007Z,7.10
2018-09-14T15:06:04.593Z,6.80
2018-09-14T15:08:33.154Z,5.90
2018-09-14T15:11:01.844Z,6.37
2018-09-14T15:13:30.436Z,6.00
2018-09-14T15:16:00.114Z,5.63
2018-09-14T15:18:28.741Z,5.10
2018-09-14T15:20:57.296Z,5.30
2018-09-14T15:23:25.901Z,6.17
2018-09-14T15:25:54.476Z,5.97
2018-09-14T15:28:23.267Z,6.17
2018-09-14T15:30:52.052Z,6.93
2018-09-14T15:33:20.749Z,6.97
2018-09-14T15:35:49.308Z,7.70
2018-09-14T15:38:18.000Z,7.83
2018-09-14T15:40:46.558Z,9.70
2018-09-14T15:43:15.208Z,10.60
2018-09-14T15:45:43.834Z,12.20
2018-09-14T15:48:15.818Z,13.77
2018-09-14T15:50:44.526Z,13.60
2018-09-14T15:53:13.137Z,13.77
2018-09-14T15:55:41.781Z,15.90
2018-09-14T15:58:10.489Z,16.60
2018-09-14T16:00:39.058Z,17.83
2018-09-14T16:03:07.625Z,17.33
2018-09-14T16:05:36.159Z,16.60
2018-09-14T16:08:04.740Z,18.23
2018-09-14T16:10:33.293Z,17.97
2018-09-14T16:13:02.161Z,18.27
2018-09-14T16:15:30.800Z,17.63
2018-09-14T16:17:59.426Z,21.07
2018-09-14T16:20:28.144Z,21.37
2018-09-14T16:22:56.810Z,20.07
2018-09-14T16:25:26.637Z,22.97
2018-09-14T16:27:55.176Z,20.77
2018-09-14T16:30:23.775Z,20.70
2018-09-14T16:32:52.649Z,22.10
2018-09-14T16:35:21.237Z,20.60
2018-09-14T16:37:49.835Z,22.17
2018-09-14T16:40:20.481Z,19.63
2018-09-14T16:42:49.099Z,21.40
2018-09-14T16:45:17.641Z,18.63
2018-09-14T16:47:46.298Z,20.03
2018-09-14T16:50:14.896Z,18.40
2018-09-14T16:52:43.535Z,19.53
2018-09-14T16:55:12.170Z,18.27
2018-09-14T16:57:40.770Z,20.27
2018-09-14T17:00:11.749Z,17.80
2018-09-14T17:02:40.527Z,18.30
2018-09-14T17:05:09.083Z,18.50
2018-09-14T17:07:37.680Z,18.37
2018-09-14T17:10:06.333Z,18.63
2018-09-14T17:12:34.931Z,18.00
2018-09-14T17:15:03.639Z,17.30
2018-09-14T17:17:32.188Z,17.40
2018-09-14T17:20:00.784Z,16.90
2018-09-14T17:22:29.394Z,17.60
2018-09-14T17:24:58.002Z,17.40
2018-09-14T17:27:26.697Z,15.70
2018-09-14T17:29:55.429Z,15.87
2018-09-14T17:32:24.070Z,15.57
2018-09-14T17:34:52.672Z,15.30
2018-09-14T17:37:21.278Z,14.80
2018-09-14T17:39:50.001Z,16.70
2018-09-14T17:42:18.625Z,15.57
2018-09-14T17:44:47.316Z,16.63
2018-09-14T17:47:20.317Z,15.40
2018-09-14T17:49:48.943Z,15.37
2018-09-14T17:52:21.678Z,15.57
2018-09-14T17:54:50.269Z,14.80
2018-09-14T17:57:20.029Z,14.93
2018-09-14T17:59:48.672Z,15.73
2018-09-14T18:02:17.288Z,14.73
2018-09-14T18:04:45.870Z,14.80
2018-09-14T18:07:14.481Z,16.03
2018-09-14T18:09:46.391Z,15.57
2018-09-14T18:12:15.012Z,14.40
2018-09-14T18:14:43.694Z,16.13
2018-09-14T18:17:13.300Z,14.70
2018-09-14T18:19:45.508Z,14.77
2018-09-14T18:22:14.099Z,14.53
2018-09-14T18:24:42.708Z,14.87
2018-09-14T18:27:11.573Z,13.63
2018-09-14T18:29:40.122Z,14.20
2018-09-14T18:32:08.727Z,13.60
2018-09-14T18:34:37.296Z,14.17
2018-09-14T18:37:11.787Z,14.20
2018-09-14T18:39:40.406Z,14.27
2018-09-14T18:42:10.070Z,13.57
2018-09-14T18:44:38.721Z,13.03
2018-09-14T18:47:07.428Z,14.97
2018-09-14T18:49:36.206Z,13.13
2018-09-14T18:52:10.642Z,13.23
2018-09-14T18:54:39.214Z,13.40
2018-09-14T18:57:07.793Z,13.80
2018-09-14T18:59:37.279Z,12.53
2018-09-14T19:02:05.906Z,14.23
2018-09-14T19:04:34.594Z,13.90
2018-09-14T19:07:03.203Z,14.23
2018-09-14T19:09:31.851Z,13.73
2018-09-14T19:12:00.478Z,14.07
2018-09-14T19:14:29.209Z,13.30
2018-09-14T19:17:10.629Z,13.00
2018-09-14T19:19:39.249Z,13.90
2018-09-14T19:22:08.897Z,13.77
2018-09-14T19:24:37.523Z,12.93
2018-09-14T19:27:06.052Z,11.30
2018-09-14T19:29:34.736Z,12.80
2018-09-14T19:32:03.341Z,12.57
2018-09-14T19:34:32.114Z,11.97
2018-09-14T19:37:00.813Z,12.17
2018-09-14T19:39:29.449Z,12.30
2018-09-14T19:41:58.104Z,11.47
2018-09-14T19:44:26.744Z,11.70
2018-09-14T19:46:55.405Z,12.07
2018-09-14T19:49:25.105Z,11.50
2018-09-14T19:51:53.766Z,13.20
2018-09-14T19:54:22.419Z,12.57
2018-09-14T19:56:51.075Z,12.03
2018-09-14T19:59:19.694Z,12.67
2018-09-14T20:01:48.294Z,11.87
2018-09-14T20:04:16.894Z,11.67
2018-09-14T20:06:45.522Z,11.97
2018-09-14T20:09:15.137Z,10.50
2018-09-14T20:11:44.164Z,11.77
2018-09-14T20:14:12.912Z,11.50
2018-09-14T20:16:41.460Z,12.23
2018-09-14T20:19:10.044Z,11.03
2018-09-14T20:21:40.693Z,11.90
2018-09-14T20:24:09.428Z,12.53
2018-09-14T20:26:38.049Z,14.23
2018-09-14T20:29:06.617Z,15.20
2018-09-14T20:31:35.296Z,14.10
2018-09-14T20:34:03.944Z,13.60
2018-09-14T20:36:32.853Z,14.17
2018-09-14T20:39:01.656Z,13.60
2018-09-14T20:41:30.584Z,13.90
2018-09-14T20:43:59.480Z,12.10
2018-09-14T20:46:28.300Z,12.03
2018-09-14T20:48:57.231Z,11.90
2018-09-14T20:51:26.090Z,13.70
2018-09-14T20:53:54.946Z,12.53
2018-09-14T20:56:23.524Z,12.90
2018-09-14T20:58:52.179Z,13.50
2018-09-14T21:01:20.723Z,13.10
2018-09-14T21:03:49.341Z,12.67
2018-09-14T21:06:33.969Z,12.60
2018-09-14T21:09:02.616Z,13.97
2018-09-14T21:11:31.204Z,14.70
2018-09-14T21:13:59.759Z,13.17
2018-09-14T21:16:28.380Z,14.80
2018-09-14T21:18:56.966Z,13.03
2018-09-14T21:21:25.616Z,13.70
2018-09-14T21:23:54.224Z,14.23
2018-09-14T21:26:22.843Z,13.07
2018-09-14T21:28:51.480Z,11.97
2018-09-14T21:31:20.040Z,12.43
2018-09-14T21:33:48.709Z,12.90
2018-09-14T21:36:17.355Z,12.80
2018-09-14T21:38:45.957Z,10.80
2018-09-14T21:41:14.541Z,11.40
2018-09-14T21:43:43.132Z,12.30
2018-09-14T21:46:11.806Z,13.07
2018-09-14T21:48:40.444Z,11.83
2018-09-14T21:51:09.030Z,13.27
2018-09-14T21:53:37.680Z,11.93
2018-09-14T21:56:06.310Z,10.60
2018-09-14T21:58:34.876Z,12.10
2018-09-14T22:01:10.538Z,11.20
2018-09-14T22:03:39.325Z,11.17
2018-09-14T22:06:07.985Z,10.43
2018-09-14T22:08:36.633Z,10.33
2018-09-14T22:11:05.267Z,10.37
2018-09-14T22:13:33.836Z,10.73
2018-09-14T22:16:02.479Z,11.20
2018-09-14T22:18:31.062Z,9.90
2018-09-14T22:20:59.653Z,10.50
2018-09-14T22:23:38.300Z,9.20
2018-09-14T22:26:07.152Z,10.97
2018-09-14T22:28:35.795Z,10.83
2018-09-14T22:31:04.370Z,10.07
2018-09-14T22:33:33.134Z,11.73
2018-09-14T22:36:01.726Z,11.47
2018-09-14T22:38:32.384Z,10.60
2018-09-14T22:41:01.005Z,10.77
2018-09-14T22:43:29.654Z,10.53
2018-09-14T22:45:58.197Z,11.73
2018-09-14T22:48:26.808Z,11.10
2018-09-14T22:50:55.416Z,10.37
2018-09-14T22:53:32.074Z,10.47
2018-09-14T22:56:00.620Z,11.83
2018-09-14T22:58:29.195Z,10.87
2018-09-14T23:01:03.130Z,10.13
2018-09-14T23:03:31.730Z,11.23
2018-09-14T23:06:00.288Z,11.17
2018-09-14T23:08:28.836Z,11.67
2018-09-14T23:10:57.412Z,11.27
2018-09-14T23:13:25.975Z,12.03
2018-09-14T23:15:57.797Z,10.97
2018-09-14T23:18:26.702Z,10.70
2018-09-14T23:20:55.344Z,10.90
2018-09-14T23:23:25.049Z,11.60
2018-09-14T23:25:55.606Z,11.23
2018-09-14T23:28:24.200Z,10.77
2018-09-14T23:30:52.817Z,11.10
2018-09-14T23:33:21.420Z,10.23
2018-09-14T23:35:49.991Z,10.73
2018-09-14T23:38:18.643Z,11.40
2018-09-14T23:40:47.176Z,10.90
2018-09-14T23:43:15.756Z,11.80
2018-09-14T23:45:44.351Z,11.60
2018-09-14T23:48:12.924Z,10.97
2018-09-14T23:50:41.486Z,11.47
2018-09-14T23:53:10.117Z,10.40
2018-09-14T23:55:38.696Z,12.10
2018-09-14T23:58:07.203Z,11.77
